createdAt,value
2022-07-31T00:02:08.618Z,20.20
2022-07-31T00:04:35.841Z,20.20
2022-07-31T00:07:03.273Z,20.10
2022-07-31T00:09:49.294Z,20.10
2022-07-31T00:12:17.829Z,20.10
2022-07-31T00:14:45.498Z,20.00
2022-07-31T00:17:12.522Z,20.00
2022-07-31T00:19:39.949Z,19.90
2022-07-31T00:22:06.948Z,19.90
2022-07-31T00:24:34.280Z,19.90
2022-07-31T00:27:01.691Z,19.70
2022-07-31T00:29:28.996Z,19.70
2022-07-31T00:31:56.840Z,19.60
2022-07-31T00:34:23.980Z,19.60
2022-07-31T00:36:50.885Z,19.50
2022-07-31T00:39:18.112Z,19.50
2022-07-31T00:41:46.434Z,19.40
2022-07-31T00:44:14.479Z,19.40
2022-07-31T00:46:42.268Z,19.30
2022-07-31T00:49:10.544Z,19.30
2022-07-31T00:51:38.548Z,19.30
2022-07-31T00:54:06.757Z,19.30
2022-07-31T00:56:33.659Z,19.30
2022-07-31T00:59:00.882Z,19.20
2022-07-31T01:01:27.914Z,19.20
2022-07-31T01:03:55.029Z,19.20
2022-07-31T01:06:22.295Z,19.20
2022-07-31T01:08:49.371Z,19.20
2022-07-31T01:11:24.916Z,19.20
2022-07-31T01:13:59.572Z,19.20
2022-07-31T01:16:31.466Z,19.10
2022-07-31T01:18:59.371Z,19.10
2022-07-31T01:22:33.321Z,19.10
2022-07-31T01:25:45.203Z,19.10
2022-07-31T01:28:50.093Z,19.10
2022-07-31T01:31:31.012Z,19.00
2022-07-31T01:34:05.629Z,19.00
2022-07-31T01:36:35.060Z,18.90
2022-07-31T01:39:03.720Z,18.90
2022-07-31T01:41:38.577Z,18.80
2022-07-31T01:44:07.468Z,18.80
2022-07-31T01:46:41.966Z,18.80
2022-07-31T01:49:11.177Z,18.70
2022-07-31T01:51:40.068Z,18.60
2022-07-31T01:54:07.518Z,18.70
2022-07-31T01:56:34.995Z,18.60
2022-07-31T01:59:02.900Z,18.60
2022-07-31T02:01:31.268Z,18.60
2022-07-31T02:04:00.642Z,18.60
2022-07-31T02:06:28.460Z,18.50
2022-07-31T02:08:56.698Z,18.50
2022-07-31T02:11:24.008Z,18.40
2022-07-31T02:13:52.254Z,18.50
2022-07-31T02:16:20.608Z,18.50
2022-07-31T02:18:52.857Z,18.60
2022-07-31T02:21:20.063Z,18.60
2022-07-31T02:23:47.005Z,18.60
2022-07-31T02:26:16.318Z,18.60
2022-07-31T02:28:44.984Z,18.70
2022-07-31T02:31:13.809Z,18.70
2022-07-31T02:33:43.430Z,18.80
2022-07-31T02:36:12.961Z,18.60
2022-07-31T02:38:41.003Z,18.50
2022-07-31T02:41:09.965Z,18.50
2022-07-31T02:43:38.656Z,18.40
2022-07-31T02:46:07.029Z,18.50
2022-07-31T02:48:34.011Z,18.40
2022-07-31T02:51:01.396Z,18.40
2022-07-31T02:53:29.781Z,18.40
2022-07-31T02:55:57.233Z,18.30
2022-07-31T02:58:24.178Z,18.30
2022-07-31T03:01:05.615Z,18.30
2022-07-31T03:03:32.685Z,18.30
2022-07-31T03:05:59.844Z,18.30
2022-07-31T03:08:27.797Z,18.30
2022-07-31T03:10:55.957Z,18.20
2022-07-31T03:13:25.983Z,18.30
2022-07-31T03:15:54.329Z,18.30
2022-07-31T03:18:21.933Z,18.30
2022-07-31T03:20:53.200Z,18.40
2022-07-31T03:23:22.036Z,18.40
2022-07-31T03:25:50.470Z,18.50
2022-07-31T03:28:21.201Z,18.50
2022-07-31T03:30:51.808Z,18.50
2022-07-31T03:33:23.620Z,18.50
2022-07-31T03:35:51.205Z,18.50
2022-07-31T03:38:39.698Z,18.50
2022-07-31T03:41:05.280Z,18.50
2022-07-31T03:43:43.705Z,18.60
2022-07-31T03:46:19.950Z,18.90
2022-07-31T03:48:47.408Z,18.80
2022-07-31T03:51:15.696Z,18.80
2022-07-31T03:53:43.998Z,18.90
2022-07-31T03:56:12.141Z,18.80
2022-07-31T03:58:39.517Z,19.10
2022-07-31T04:01:10.526Z,19.00
2022-07-31T04:03:39.512Z,18.90
2022-07-31T04:06:06.530Z,19.00
2022-07-31T04:08:34.193Z,19.00
2022-07-31T04:11:01.086Z,18.90
2022-07-31T04:13:28.604Z,18.90
2022-07-31T04:15:55.531Z,18.90
2022-07-31T04:18:22.544Z,18.90
2022-07-31T04:20:49.610Z,18.80
2022-07-31T04:23:17.056Z,18.90
2022-07-31T04:25:43.928Z,18.90
2022-07-31T04:28:11.259Z,18.90
2022-07-31T04:30:39.243Z,18.80
2022-07-31T04:33:06.355Z,18.90
2022-07-31T04:35:33.308Z,18.90
2022-07-31T04:38:00.146Z,18.90
2022-07-31T04:40:27.624Z,19.00
2022-07-31T04:42:55.232Z,19.00
2022-07-31T04:45:22.302Z,19.00
2022-07-31T04:47:49.282Z,19.00
2022-07-31T04:50:16.222Z,19.10
2022-07-31T04:52:43.081Z,19.10
2022-07-31T04:55:10.127Z,19.20
2022-07-31T04:57:37.043Z,19.10
2022-07-31T05:00:09.661Z,19.20
2022-07-31T05:02:37.168Z,19.20
2022-07-31T05:05:04.673Z,19.20
2022-07-31T05:07:31.609Z,19.20
2022-07-31T05:09:58.797Z,19.20
2022-07-31T05:12:26.212Z,19.30
2022-07-31T05:14:53.644Z,19.20
2022-07-31T05:17:20.666Z,19.30
2022-07-31T05:19:47.757Z,19.40
2022-07-31T05:22:14.710Z,19.40
2022-07-31T05:24:43.118Z,19.40
2022-07-31T05:27:10.839Z,19.40
2022-07-31T05:29:37.821Z,19.50
2022-07-31T05:32:05.230Z,19.60
2022-07-31T05:34:32.141Z,19.60
2022-07-31T05:37:01.538Z,19.70
2022-07-31T05:39:29.074Z,19.80
2022-07-31T05:41:56.107Z,19.80
2022-07-31T05:44:23.037Z,19.90
2022-07-31T05:49:16.168Z,19.90
2022-07-31T05:51:44.063Z,20.00
2022-07-31T05:54:11.070Z,20.10
2022-07-31T05:56:38.268Z,20.00
2022-07-31T05:59:05.237Z,20.00
2022-07-31T06:01:32.256Z,20.10
2022-07-31T06:03:59.221Z,20.20
2022-07-31T06:06:26.158Z,20.30
2022-07-31T06:08:53.106Z,20.50
2022-07-31T06:11:20.158Z,20.50
2022-07-31T06:13:47.206Z,20.60
2022-07-31T06:16:15.025Z,20.80
2022-07-31T06:18:42.521Z,20.70
2022-07-31T06:23:37.303Z,20.70
2022-07-31T06:26:04.332Z,21.00
2022-07-31T06:28:47.976Z,21.00
2022-07-31T06:31:21.163Z,21.20
2022-07-31T06:33:49.922Z,21.20
2022-07-31T06:36:18.356Z,21.10
2022-07-31T06:38:46.117Z,21.30
2022-07-31T06:41:36.399Z,21.30
2022-07-31T06:44:03.607Z,21.40
2022-07-31T06:46:30.523Z,21.40
2022-07-31T06:48:57.498Z,21.50
2022-07-31T06:51:32.348Z,21.50
2022-07-31T06:54:04.943Z,21.50
2022-07-31T06:56:32.901Z,21.50
2022-07-31T06:59:00.426Z,21.40
2022-07-31T07:01:27.728Z,21.30
2022-07-31T07:03:55.462Z,21.20
2022-07-31T07:06:23.283Z,21.30
2022-07-31T07:08:50.828Z,21.50
2022-07-31T07:11:18.228Z,21.60
2022-07-31T07:13:46.918Z,21.60
2022-07-31T07:16:15.012Z,21.60
2022-07-31T07:18:43.343Z,21.80
2022-07-31T07:21:11.178Z,21.80
2022-07-31T07:23:38.409Z,21.50
2022-07-31T07:26:05.933Z,21.30
2022-07-31T07:28:33.097Z,21.50
2022-07-31T07:31:00.116Z,21.40
2022-07-31T07:33:41.167Z,21.50
2022-07-31T07:36:23.360Z,21.60
2022-07-31T07:38:56.053Z,21.40
2022-07-31T07:41:26.480Z,21.60
2022-07-31T07:43:53.731Z,21.70
2022-07-31T07:46:24.093Z,21.80
2022-07-31T07:48:51.707Z,21.80
2022-07-31T07:51:19.847Z,21.80
2022-07-31T07:53:46.820Z,21.80
2022-07-31T07:56:13.812Z,21.70
2022-07-31T07:58:40.935Z,21.80
2022-07-31T08:01:08.109Z,21.90
2022-07-31T08:03:48.352Z,22.10
2022-07-31T08:06:19.517Z,22.10
2022-07-31T08:08:46.410Z,22.20
2022-07-31T08:11:17.587Z,22.10
2022-07-31T08:13:50.250Z,21.90
2022-07-31T08:16:20.395Z,21.80
2022-07-31T08:18:48.273Z,22.10
2022-07-31T08:21:15.224Z,22.20
2022-07-31T08:23:42.346Z,22.30
2022-07-31T08:26:09.423Z,22.10
2022-07-31T08:28:36.793Z,22.10
2022-07-31T08:31:04.118Z,22.40
2022-07-31T08:33:33.252Z,22.60
2022-07-31T08:36:01.036Z,22.90
2022-07-31T08:38:29.057Z,22.90
2022-07-31T08:40:55.965Z,23.00
2022-07-31T08:44:02.573Z,23.00
2022-07-31T08:46:10.675Z,23.20
2022-07-31T08:48:40.956Z,23.00
2022-07-31T08:51:14.095Z,23.00
2022-07-31T08:53:43.239Z,22.90
2022-07-31T08:56:10.637Z,22.90
2022-07-31T08:58:39.927Z,23.00
2022-07-31T09:01:08.857Z,23.00
2022-07-31T09:03:36.388Z,22.90
2022-07-31T09:06:04.541Z,22.90
2022-07-31T09:08:33.424Z,23.00
2022-07-31T09:11:08.766Z,22.70
2022-07-31T09:13:36.064Z,22.80
2022-07-31T09:16:03.833Z,22.80
2022-07-31T09:18:31.136Z,23.10
2022-07-31T09:21:06.202Z,23.40
2022-07-31T09:23:33.345Z,23.30
2022-07-31T09:26:04.327Z,23.60
2022-07-31T09:28:39.624Z,23.60
2022-07-31T09:31:07.930Z,23.30
2022-07-31T09:33:42.300Z,23.30
2022-07-31T09:36:13.075Z,23.40
2022-07-31T09:38:42.745Z,23.50
2022-07-31T09:41:58.026Z,23.50
2022-07-31T09:44:09.692Z,23.50
2022-07-31T09:46:41.122Z,23.60
2022-07-31T09:49:08.237Z,23.50
2022-07-31T09:51:43.525Z,23.70
2022-07-31T09:54:24.760Z,23.80
2022-07-31T09:56:52.414Z,24.00
2022-07-31T09:59:19.524Z,24.00
2022-07-31T10:01:49.063Z,24.20
2022-07-31T10:04:20.844Z,24.20
2022-07-31T10:06:48.976Z,24.60
2022-07-31T10:09:19.097Z,24.60
2022-07-31T10:11:47.966Z,24.80
2022-07-31T10:14:21.795Z,24.90
2022-07-31T10:16:50.580Z,25.10
2022-07-31T10:19:19.104Z,25.40
2022-07-31T10:21:54.804Z,25.30
2022-07-31T10:24:28.164Z,25.60
2022-07-31T10:27:08.013Z,25.40
2022-07-31T10:29:41.007Z,25.30
2022-07-31T10:32:09.264Z,25.00
2022-07-31T10:34:37.114Z,25.20
2022-07-31T10:37:15.263Z,25.20
2022-07-31T10:40:12.607Z,25.10
2022-07-31T10:42:55.884Z,24.80
2022-07-31T10:45:23.838Z,24.90
2022-07-31T10:48:01.461Z,24.90
2022-07-31T10:50:32.173Z,24.60
2022-07-31T10:53:13.855Z,24.40
2022-07-31T10:55:41.242Z,24.30
2022-07-31T10:58:11.850Z,24.40
2022-07-31T11:00:39.407Z,24.70
2022-07-31T11:03:20.808Z,24.80
2022-07-31T11:06:01.500Z,25.50
2022-07-31T11:08:43.182Z,25.80
2022-07-31T11:11:11.362Z,25.80
2022-07-31T11:13:51.299Z,25.50
2022-07-31T11:16:19.561Z,25.70
2022-07-31T11:19:01.450Z,25.50
2022-07-31T11:21:40.789Z,25.60
2022-07-31T11:24:18.482Z,25.10
2022-07-31T11:26:55.978Z,25.40
2022-07-31T11:30:00.451Z,25.40
2022-07-31T11:32:16.229Z,26.00
2022-07-31T11:34:50.079Z,26.10
2022-07-31T11:37:20.528Z,26.00
2022-07-31T11:39:51.700Z,26.50
2022-07-31T11:42:27.310Z,26.30
2022-07-31T11:45:11.277Z,26.50
2022-07-31T11:48:11.125Z,26.70
2022-07-31T11:50:40.166Z,26.00
2022-07-31T11:53:07.328Z,26.40
2022-07-31T11:56:00.783Z,26.80
2022-07-31T11:58:28.935Z,27.10
2022-07-31T12:01:01.694Z,26.80
2022-07-31T12:03:33.038Z,26.70
2022-07-31T12:06:00.404Z,26.90
2022-07-31T12:08:27.879Z,27.10
2022-07-31T12:10:56.624Z,26.50
2022-07-31T12:13:25.372Z,26.80
2022-07-31T12:16:04.566Z,27.10
2022-07-31T12:18:54.179Z,27.70
2022-07-31T12:21:21.476Z,28.10
2022-07-31T12:23:52.406Z,27.70
2022-07-31T12:26:31.903Z,27.30
2022-07-31T12:29:06.192Z,26.90
2022-07-31T12:31:48.656Z,27.60
2022-07-31T12:34:43.821Z,27.80
2022-07-31T12:37:16.915Z,27.80
2022-07-31T12:39:59.844Z,28.50
2022-07-31T12:42:31.706Z,28.90
2022-07-31T12:45:19.200Z,28.50
2022-07-31T12:47:52.231Z,29.20
2022-07-31T12:50:20.808Z,29.60
2022-07-31T12:52:48.024Z,29.30
2022-07-31T12:55:17.019Z,28.30
2022-07-31T12:57:50.851Z,28.00
2022-07-31T13:00:25.124Z,27.70
2022-07-31T13:02:53.565Z,27.60
2022-07-31T13:05:21.377Z,27.50
2022-07-31T13:07:48.954Z,27.40
2022-07-31T13:10:21.599Z,27.40
2022-07-31T13:12:51.543Z,27.60
2022-07-31T13:15:20.015Z,28.30
2022-07-31T13:17:50.163Z,28.40
2022-07-31T13:20:18.340Z,28.50
2022-07-31T13:22:45.220Z,28.90
2022-07-31T13:25:12.234Z,29.40
2022-07-31T13:27:39.656Z,29.00
2022-07-31T13:30:09.370Z,29.00
2022-07-31T13:32:36.313Z,28.90
2022-07-31T13:35:25.417Z,29.50
2022-07-31T13:37:50.669Z,29.50
2022-07-31T13:40:37.518Z,30.00
2022-07-31T13:43:04.505Z,30.20
2022-07-31T13:45:31.340Z,29.40
2022-07-31T13:48:00.497Z,28.60
2022-07-31T13:50:28.617Z,28.70
2022-07-31T13:52:57.777Z,29.00
2022-07-31T13:55:25.774Z,29.10
2022-07-31T13:57:52.830Z,29.10
2022-07-31T14:00:23.943Z,28.90
2022-07-31T14:02:51.513Z,28.20
2022-07-31T14:05:19.077Z,28.60
2022-07-31T14:07:51.799Z,28.50
2022-07-31T14:10:21.050Z,28.70
2022-07-31T14:12:48.745Z,29.40
2022-07-31T14:15:16.676Z,29.60
2022-07-31T14:17:43.705Z,29.40
2022-07-31T14:20:11.699Z,29.50
2022-07-31T14:22:38.654Z,29.70
2022-07-31T14:25:05.778Z,29.70
2022-07-31T14:27:34.400Z,29.30
2022-07-31T14:30:01.892Z,29.40
2022-07-31T14:32:30.726Z,29.30
2022-07-31T14:34:57.688Z,28.70
2022-07-31T14:37:24.730Z,28.80
2022-07-31T14:39:52.191Z,29.50
2022-07-31T14:42:27.379Z,30.00
2022-07-31T14:44:54.475Z,29.50
2022-07-31T14:47:21.355Z,29.10
2022-07-31T14:50:09.751Z,29.70
2022-07-31T14:52:35.139Z,29.90
2022-07-31T14:55:02.190Z,29.80
2022-07-31T14:57:31.570Z,29.20
2022-07-31T14:59:58.782Z,29.00
2022-07-31T15:02:25.997Z,28.60
2022-07-31T15:04:53.070Z,28.30
2022-07-31T15:07:39.808Z,28.70
2022-07-31T15:10:09.983Z,29.30
2022-07-31T15:12:37.052Z,29.80
2022-07-31T15:15:04.304Z,29.30
2022-07-31T15:17:31.240Z,30.00
2022-07-31T15:19:58.105Z,30.30
2022-07-31T15:22:25.060Z,29.80
2022-07-31T15:24:52.295Z,29.60
2022-07-31T15:27:21.781Z,29.30
2022-07-31T15:30:03.885Z,29.10
2022-07-31T15:32:38.541Z,29.00
2022-07-31T15:35:07.392Z,28.60
2022-07-31T15:37:39.373Z,28.20
2022-07-31T15:40:09.002Z,28.10
2022-07-31T15:42:40.328Z,28.10
2022-07-31T15:45:10.162Z,28.70
2022-07-31T15:47:37.150Z,28.30
2022-07-31T15:50:05.200Z,28.20
2022-07-31T15:52:32.183Z,28.30
2022-07-31T15:54:59.301Z,28.50
2022-07-31T15:57:26.621Z,28.40
2022-07-31T15:59:56.361Z,28.00
2022-07-31T16:02:25.035Z,27.80
2022-07-31T16:04:55.637Z,28.00
2022-07-31T16:08:30.614Z,28.10
2022-07-31T16:10:17.475Z,27.70
2022-07-31T16:12:48.684Z,27.50
2022-07-31T16:15:17.086Z,27.30
2022-07-31T16:17:44.882Z,27.30
2022-07-31T16:20:26.196Z,27.50
2022-07-31T16:23:01.344Z,27.60
2022-07-31T16:25:34.669Z,27.60
2022-07-31T16:28:03.098Z,27.70
2022-07-31T16:30:30.023Z,27.60
2022-07-31T16:32:57.166Z,27.80
2022-07-31T16:35:26.450Z,28.00
2022-07-31T16:37:54.212Z,27.90
2022-07-31T16:40:29.808Z,27.70
2022-07-31T16:43:47.392Z,27.40
2022-07-31T16:45:55.848Z,27.30
2022-07-31T16:48:23.097Z,27.50
2022-07-31T16:50:54.281Z,27.60
2022-07-31T16:54:11.700Z,27.60
2022-07-31T16:56:14.205Z,27.50
2022-07-31T16:58:41.535Z,27.20
2022-07-31T17:01:59.402Z,27.20
2022-07-31T17:04:03.078Z,27.20
2022-07-31T17:06:37.358Z,27.20
2022-07-31T17:09:16.160Z,27.20
2022-07-31T17:11:45.109Z,27.30
2022-07-31T17:14:12.135Z,27.20
2022-07-31T17:16:42.264Z,27.10
2022-07-31T17:19:13.224Z,27.00
2022-07-31T17:21:41.897Z,26.80
2022-07-31T17:24:15.698Z,26.90
2022-07-31T17:26:44.161Z,26.70
2022-07-31T17:29:12.230Z,26.50
2022-07-31T17:31:39.613Z,26.30
2022-07-31T17:34:09.251Z,26.30
2022-07-31T17:36:36.683Z,26.40
2022-07-31T17:39:04.949Z,26.40
2022-07-31T17:41:32.194Z,26.40
2022-07-31T17:43:59.268Z,26.40
2022-07-31T17:46:29.305Z,26.60
2022-07-31T17:49:06.278Z,26.50
2022-07-31T17:51:33.409Z,26.30
2022-07-31T17:54:00.669Z,26.20
2022-07-31T17:56:27.925Z,26.10
2022-07-31T17:59:04.291Z,25.90
2022-07-31T18:01:32.629Z,25.90
2022-07-31T18:03:59.890Z,25.80
2022-07-31T18:06:26.844Z,25.80
2022-07-31T18:08:54.011Z,25.80
2022-07-31T18:11:21.707Z,25.80
2022-07-31T18:14:03.642Z,25.70
2022-07-31T18:16:32.057Z,25.70
2022-07-31T18:18:59.026Z,25.70
2022-07-31T18:21:26.061Z,25.60
2022-07-31T18:23:52.946Z,25.60
2022-07-31T18:26:19.870Z,25.60
2022-07-31T18:28:46.779Z,25.60
2022-07-31T18:31:32.322Z,25.50
2022-07-31T18:34:00.781Z,25.50
2022-07-31T18:36:27.779Z,25.40
2022-07-31T18:38:54.741Z,25.30
2022-07-31T18:41:21.722Z,25.30
2022-07-31T18:43:48.680Z,25.20
2022-07-31T18:46:15.873Z,25.20
2022-07-31T18:48:42.865Z,25.20
2022-07-31T18:51:09.918Z,25.10
2022-07-31T18:53:37.094Z,25.10
2022-07-31T18:56:04.325Z,25.10
2022-07-31T18:58:31.495Z,25.00
2022-07-31T19:00:58.490Z,25.00
2022-07-31T19:03:26.548Z,24.90
2022-07-31T19:05:54.652Z,24.90
2022-07-31T19:08:21.986Z,24.90
2022-07-31T19:10:49.704Z,24.90
2022-07-31T19:13:19.300Z,24.70
2022-07-31T19:15:54.255Z,24.80
2022-07-31T19:18:28.230Z,24.70
2022-07-31T19:21:22.916Z,24.60
2022-07-31T19:23:46.885Z,24.60
2022-07-31T19:26:14.012Z,24.50
2022-07-31T19:28:43.402Z,24.50
2022-07-31T19:31:11.753Z,24.40
2022-07-31T19:33:38.742Z,24.40
2022-07-31T19:36:06.539Z,24.40
2022-07-31T19:38:35.978Z,24.30
2022-07-31T19:41:03.307Z,24.30
2022-07-31T19:43:30.507Z,24.20
2022-07-31T19:45:57.652Z,24.10
2022-07-31T19:48:37.018Z,24.10
2022-07-31T19:51:04.420Z,24.00
2022-07-31T19:53:31.755Z,24.00
2022-07-31T19:56:00.465Z,24.00
2022-07-31T19:58:27.440Z,23.90
2022-07-31T20:00:54.367Z,23.90
2022-07-31T20:03:21.500Z,23.80
2022-07-31T20:05:48.382Z,23.70
2022-07-31T20:08:15.336Z,23.70
2022-07-31T20:10:42.264Z,23.70
2022-07-31T20:13:09.328Z,23.70
2022-07-31T20:15:52.660Z,23.60
2022-07-31T20:18:28.572Z,23.60
2022-07-31T20:20:58.600Z,23.50
2022-07-31T20:23:26.436Z,23.50
2022-07-31T20:25:53.866Z,23.50
2022-07-31T20:28:21.226Z,23.50
2022-07-31T20:30:48.436Z,23.50
2022-07-31T20:33:15.806Z,23.40
2022-07-31T20:35:49.259Z,23.40
2022-07-31T20:38:21.520Z,23.30
2022-07-31T20:40:54.158Z,23.30
2022-07-31T20:43:23.972Z,23.30
2022-07-31T20:45:51.818Z,23.20
2022-07-31T20:48:21.114Z,23.10
2022-07-31T20:50:48.644Z,23.00
2022-07-31T20:53:17.800Z,23.00
2022-07-31T20:55:47.512Z,22.90
2022-07-31T20:58:14.578Z,23.00
2022-07-31T21:00:42.777Z,23.10
2022-07-31T21:03:09.828Z,23.00
2022-07-31T21:05:36.792Z,23.10
2022-07-31T21:08:03.772Z,22.90
2022-07-31T21:10:30.683Z,22.90
2022-07-31T21:13:21.433Z,22.90
2022-07-31T21:15:48.474Z,22.80
2022-07-31T21:18:17.000Z,22.80
2022-07-31T21:20:51.911Z,22.80
2022-07-31T21:23:25.270Z,22.90
2022-07-31T21:25:57.389Z,22.70
2022-07-31T21:28:27.104Z,22.50
2022-07-31T21:30:56.503Z,22.50
2022-07-31T21:33:27.355Z,22.60
2022-07-31T21:35:57.639Z,22.50
2022-07-31T21:38:25.237Z,22.40
2022-07-31T21:40:53.913Z,22.40
2022-07-31T21:43:22.641Z,22.40
2022-07-31T21:45:57.203Z,22.30
2022-07-31T21:48:29.470Z,22.30
2022-07-31T21:50:56.462Z,22.30
2022-07-31T21:53:24.171Z,22.30
2022-07-31T21:55:51.246Z,22.30
2022-07-31T21:58:18.688Z,22.20
2022-07-31T22:00:46.044Z,22.30
2022-07-31T22:03:13.093Z,22.20
2022-07-31T22:05:58.670Z,22.10
2022-07-31T22:08:25.782Z,22.00
2022-07-31T22:10:53.192Z,22.00
2022-07-31T22:13:20.638Z,21.90
2022-07-31T22:15:51.481Z,21.90
2022-07-31T22:18:36.645Z,21.80
2022-07-31T22:21:08.416Z,21.80
2022-07-31T22:23:36.275Z,21.80
2022-07-31T22:26:04.164Z,21.80
2022-07-31T22:28:31.444Z,21.80
2022-07-31T22:30:58.637Z,21.80
2022-07-31T22:33:25.705Z,21.80
2022-07-31T22:35:59.927Z,21.80
2022-07-31T22:38:29.681Z,21.90
2022-07-31T22:40:57.759Z,21.70
2022-07-31T22:44:05.579Z,21.70
2022-07-31T22:46:12.755Z,21.80
2022-07-31T22:48:41.110Z,21.70
2022-07-31T22:51:08.319Z,21.70
2022-07-31T22:53:35.249Z,21.70
2022-07-31T22:56:02.237Z,21.70
2022-07-31T22:58:29.207Z,21.70
2022-07-31T23:00:56.482Z,21.60
2022-07-31T23:03:23.461Z,21.50
2022-07-31T23:06:02.760Z,21.60
2022-07-31T23:08:37.319Z,21.50
2022-07-31T23:11:04.593Z,21.50
2022-07-31T23:13:31.557Z,21.50
2022-07-31T23:15:58.444Z,21.40
2022-07-31T23:18:26.667Z,21.40
2022-07-31T23:20:53.610Z,21.50
2022-07-31T23:23:20.596Z,21.50
2022-07-31T23:25:47.535Z,21.40
2022-07-31T23:28:14.457Z,21.40
2022-07-31T23:30:41.425Z,21.40
2022-07-31T23:33:08.346Z,21.40
2022-07-31T23:35:35.264Z,21.40
2022-07-31T23:38:02.163Z,21.40
2022-07-31T23:40:29.298Z,21.50
2022-07-31T23:42:56.161Z,21.40
2022-07-31T23:45:23.778Z,21.30
2022-07-31T23:47:50.892Z,21.30
2022-07-31T23:50:18.289Z,21.40
2022-07-31T23:52:45.495Z,21.30
2022-07-31T23:55:13.193Z,21.30
2022-07-31T23:57:40.690Z,21.30
